createdAt,value
2019-01-13T00:02:13.648Z,5.87
2019-01-13T00:04:41.949Z,4.37
2019-01-13T00:07:10.265Z,4.60
2019-01-13T00:09:38.486Z,4.50
2019-01-13T00:12:07.077Z,4.60
2019-01-13T00:14:35.293Z,5.00
2019-01-13T00:17:03.609Z,4.60
2019-01-13T00:19:31.825Z,3.87
2019-01-13T00:22:00.044Z,4.93
2019-01-13T00:24:28.298Z,4.47
2019-01-13T00:26:56.509Z,4.37
2019-01-13T00:29:24.764Z,4.47
2019-01-13T00:31:52.989Z,4.53
2019-01-13T00:34:21.233Z,4.80
2019-01-13T00:36:49.453Z,5.00
2019-01-13T00:39:17.697Z,4.17
2019-01-13T00:41:45.917Z,5.50
2019-01-13T00:44:14.169Z,5.00
2019-01-13T00:46:42.384Z,4.13
2019-01-13T00:49:10.641Z,4.63
2019-01-13T00:51:38.855Z,4.43
2019-01-13T00:54:07.173Z,4.47
2019-01-13T00:56:35.389Z,5.00
2019-01-13T00:59:03.705Z,5.00
2019-01-13T01:01:31.924Z,4.63
2019-01-13T01:04:00.169Z,3.83
2019-01-13T01:06:28.461Z,5.60
2019-01-13T01:08:56.785Z,4.83
2019-01-13T01:11:25.277Z,4.23
2019-01-13T01:13:53.521Z,4.87
2019-01-13T01:16:21.776Z,4.30
2019-01-13T01:18:50.024Z,4.70
2019-01-13T01:21:18.245Z,4.53
2019-01-13T01:23:46.493Z,4.77
2019-01-13T01:26:14.781Z,4.90
2019-01-13T01:28:44.404Z,4.23
2019-01-13T01:31:12.649Z,4.70
2019-01-13T01:33:40.868Z,5.70
2019-01-13T01:36:09.122Z,5.23
2019-01-13T01:38:37.341Z,3.93
2019-01-13T01:41:05.662Z,4.10
2019-01-13T01:43:33.881Z,5.00
2019-01-13T01:46:02.129Z,4.60
2019-01-13T01:48:30.349Z,3.77
2019-01-13T01:50:58.600Z,4.30
2019-01-13T01:53:26.826Z,4.43
2019-01-13T01:55:55.073Z,5.80
2019-01-13T01:58:23.293Z,4.33
2019-01-13T02:00:51.537Z,5.37
2019-01-13T02:03:19.756Z,4.27
2019-01-13T02:05:48.006Z,5.00
2019-01-13T02:08:16.231Z,5.07
2019-01-13T02:10:44.469Z,4.73
2019-01-13T02:13:12.685Z,4.80
2019-01-13T02:15:40.937Z,5.63
2019-01-13T02:18:09.225Z,4.30
2019-01-13T02:20:37.540Z,5.57
2019-01-13T02:23:05.821Z,5.70
2019-01-13T02:25:34.149Z,4.03
2019-01-13T02:28:02.367Z,5.03
2019-01-13T02:30:30.625Z,3.40
2019-01-13T02:32:58.849Z,4.10
2019-01-13T02:35:27.072Z,4.37
2019-01-13T02:37:55.423Z,4.30
2019-01-13T02:40:23.641Z,4.10
2019-01-13T02:42:51.920Z,4.40
2019-01-13T02:45:21.400Z,3.93
2019-01-13T02:47:49.729Z,4.80
2019-01-13T02:50:18.023Z,4.57
2019-01-13T02:52:46.306Z,3.60
2019-01-13T02:55:14.588Z,4.43
2019-01-13T02:57:42.938Z,4.93
2019-01-13T03:00:15.612Z,4.27
2019-01-13T03:02:43.902Z,4.80
2019-01-13T03:05:12.721Z,4.90
2019-01-13T03:07:41.224Z,5.43
2019-01-13T03:10:16.807Z,5.17
2019-01-13T03:12:45.177Z,5.40
2019-01-13T03:15:19.691Z,5.90
2019-01-13T03:17:44.858Z,5.60
2019-01-13T03:20:13.575Z,5.17
2019-01-13T03:22:41.859Z,5.80
2019-01-13T03:25:12.096Z,5.37
2019-01-13T03:27:40.489Z,5.13
2019-01-13T03:30:16.277Z,6.10
2019-01-13T03:32:44.503Z,6.70
2019-01-13T03:35:12.830Z,5.73
2019-01-13T03:37:41.113Z,4.70
2019-01-13T03:40:10.906Z,5.60
2019-01-13T03:42:39.182Z,5.93
2019-01-13T03:45:08.863Z,5.33
2019-01-13T03:47:37.118Z,5.53
2019-01-13T03:50:09.599Z,6.80
2019-01-13T03:52:37.908Z,4.00
2019-01-13T03:55:07.101Z,4.60
2019-01-13T03:57:35.361Z,5.93
2019-01-13T04:00:05.137Z,6.10
2019-01-13T04:02:33.350Z,6.10
2019-01-13T04:05:01.596Z,6.27
2019-01-13T04:07:29.822Z,7.23
2019-01-13T04:09:58.102Z,5.53
2019-01-13T04:12:26.313Z,5.13
2019-01-13T04:14:54.560Z,7.00
2019-01-13T04:17:22.779Z,6.97
2019-01-13T04:19:51.027Z,7.40
2019-01-13T04:22:19.319Z,4.73
2019-01-13T04:24:47.571Z,6.40
2019-01-13T04:27:15.790Z,6.33
2019-01-13T04:29:44.041Z,5.70
2019-01-13T04:32:12.286Z,6.60
2019-01-13T04:34:40.537Z,4.67
2019-01-13T04:37:08.796Z,4.60
2019-01-13T04:39:37.010Z,5.60
2019-01-13T04:42:05.260Z,3.83
2019-01-13T04:44:33.513Z,4.63
2019-01-13T04:47:01.754Z,4.23
2019-01-13T04:49:30.007Z,4.97
2019-01-13T04:51:58.282Z,4.53
2019-01-13T04:54:26.501Z,5.50
2019-01-13T04:56:54.749Z,4.50
2019-01-13T04:59:22.973Z,5.83
2019-01-13T05:01:51.225Z,8.60
2019-01-13T05:04:19.447Z,6.70
2019-01-13T05:06:47.724Z,5.70
2019-01-13T05:09:15.933Z,5.83
2019-01-13T05:11:44.219Z,5.13
2019-01-13T05:14:12.435Z,6.80
2019-01-13T05:16:40.682Z,5.90
2019-01-13T05:19:08.932Z,5.10
2019-01-13T05:21:37.173Z,5.00
2019-01-13T05:24:05.403Z,5.70
2019-01-13T05:26:33.647Z,8.03
2019-01-13T05:29:01.871Z,8.23
2019-01-13T05:31:30.180Z,6.03
2019-01-13T05:33:58.434Z,7.13
2019-01-13T05:36:26.704Z,7.30
2019-01-13T05:38:54.918Z,7.37
2019-01-13T05:41:23.176Z,9.37
2019-01-13T05:43:51.405Z,7.27
2019-01-13T05:46:19.685Z,9.63
2019-01-13T05:48:47.901Z,7.70
2019-01-13T05:51:16.150Z,7.27
2019-01-13T05:53:44.373Z,7.70
2019-01-13T05:56:12.598Z,4.80
2019-01-13T05:58:40.847Z,8.97
2019-01-13T06:01:09.181Z,7.97
2019-01-13T06:03:37.430Z,5.87
2019-01-13T06:06:05.713Z,9.30
2019-01-13T06:08:33.965Z,8.37
2019-01-13T06:11:02.262Z,7.80
2019-01-13T06:13:30.504Z,7.57
2019-01-13T06:15:58.725Z,9.67
2019-01-13T06:18:26.973Z,9.63
2019-01-13T06:20:55.224Z,8.30
2019-01-13T06:23:23.485Z,8.57
2019-01-13T06:25:51.705Z,8.07
2019-01-13T06:28:19.957Z,9.13
2019-01-13T06:30:48.206Z,8.87
2019-01-13T06:33:16.517Z,6.77
2019-01-13T06:35:44.737Z,7.87
2019-01-13T06:38:12.991Z,9.50
2019-01-13T06:40:41.236Z,7.60
2019-01-13T06:43:09.510Z,5.27
2019-01-13T06:45:37.729Z,8.27
2019-01-13T06:48:05.981Z,6.67
2019-01-13T06:50:34.201Z,8.03
2019-01-13T06:53:02.457Z,5.97
2019-01-13T06:55:30.675Z,6.10
2019-01-13T06:57:58.954Z,6.30
2019-01-13T07:00:27.334Z,5.93
2019-01-13T07:02:55.754Z,7.80
2019-01-13T07:05:23.974Z,7.07
2019-01-13T07:07:52.227Z,7.10
2019-01-13T07:10:20.442Z,8.73
2019-01-13T07:12:48.758Z,9.00
2019-01-13T07:15:18.046Z,8.00
2019-01-13T07:17:46.307Z,11.20
2019-01-13T07:20:18.094Z,9.97
2019-01-13T07:22:46.386Z,9.40
2019-01-13T07:25:14.798Z,8.07
2019-01-13T07:27:43.186Z,9.00
2019-01-13T07:30:12.972Z,5.73
2019-01-13T07:32:41.219Z,8.13
2019-01-13T07:35:09.541Z,10.13
2019-01-13T07:37:37.822Z,7.43
2019-01-13T07:40:07.613Z,5.80
2019-01-13T07:42:35.829Z,5.33
2019-01-13T07:45:05.954Z,9.53
2019-01-13T07:47:34.174Z,8.00
2019-01-13T07:50:02.425Z,6.27
2019-01-13T07:52:30.643Z,9.57
2019-01-13T07:54:58.922Z,9.70
2019-01-13T07:57:27.130Z,6.03
2019-01-13T07:59:55.418Z,10.40
2019-01-13T08:02:23.630Z,7.47
2019-01-13T08:04:51.887Z,9.90
2019-01-13T08:07:20.105Z,10.57
2019-01-13T08:09:48.382Z,7.70
2019-01-13T08:12:16.597Z,4.70
2019-01-13T08:14:44.877Z,8.73
2019-01-13T08:17:13.084Z,6.70
2019-01-13T08:19:41.338Z,6.23
2019-01-13T08:22:09.557Z,7.80
2019-01-13T08:24:37.813Z,4.43
2019-01-13T08:27:06.065Z,15.17
2019-01-13T08:29:34.335Z,8.37
2019-01-13T08:32:02.541Z,9.70
2019-01-13T08:34:30.793Z,6.97
2019-01-13T08:36:59.021Z,4.93
2019-01-13T08:39:27.269Z,7.83
2019-01-13T08:41:55.501Z,5.93
2019-01-13T08:44:23.713Z,6.70
2019-01-13T08:46:51.970Z,7.43
2019-01-13T08:49:20.191Z,7.33
2019-01-13T08:51:48.442Z,5.97
2019-01-13T08:54:16.657Z,6.63
2019-01-13T08:56:44.908Z,5.73
2019-01-13T08:59:13.130Z,4.70
2019-01-13T09:01:41.381Z,4.47
2019-01-13T09:04:09.599Z,6.17
2019-01-13T09:06:37.846Z,5.90
2019-01-13T09:09:08.105Z,5.20
2019-01-13T09:11:36.368Z,6.90
2019-01-13T09:14:04.581Z,5.23
2019-01-13T09:16:32.826Z,8.90
2019-01-13T09:19:01.049Z,5.40
2019-01-13T09:21:29.374Z,5.27
2019-01-13T09:23:57.598Z,4.47
2019-01-13T09:26:25.847Z,6.27
2019-01-13T09:28:54.108Z,6.07
2019-01-13T09:31:22.358Z,6.13
2019-01-13T09:33:50.653Z,9.27
2019-01-13T09:36:18.906Z,5.07
2019-01-13T09:38:47.121Z,5.40
2019-01-13T09:41:15.397Z,6.17
2019-01-13T09:43:43.610Z,5.37
2019-01-13T09:46:11.862Z,6.87
2019-01-13T09:48:40.081Z,4.23
2019-01-13T09:51:08.430Z,4.20
2019-01-13T09:53:36.675Z,4.60
2019-01-13T09:56:04.914Z,5.53
2019-01-13T09:58:33.133Z,3.30
2019-01-13T10:01:01.453Z,5.10
2019-01-13T10:03:29.673Z,3.97
2019-01-13T10:05:57.889Z,5.90
2019-01-13T10:08:26.150Z,6.43
2019-01-13T10:10:54.432Z,4.30
2019-01-13T10:13:22.745Z,5.70
2019-01-13T10:15:50.962Z,5.37
2019-01-13T10:18:19.205Z,4.80
2019-01-13T10:20:47.429Z,4.43
2019-01-13T10:23:15.746Z,7.30
2019-01-13T10:25:44.032Z,4.43
2019-01-13T10:28:12.278Z,7.60
2019-01-13T10:30:40.530Z,5.10
2019-01-13T10:33:08.840Z,5.10
2019-01-13T10:35:37.086Z,5.57
2019-01-13T10:38:05.328Z,5.20
2019-01-13T10:40:33.541Z,5.17
2019-01-13T10:43:01.818Z,4.87
2019-01-13T10:45:31.074Z,4.17
2019-01-13T10:47:59.668Z,4.63
2019-01-13T10:50:28.404Z,4.27
2019-01-13T10:52:57.821Z,5.40
2019-01-13T10:55:26.134Z,3.67
2019-01-13T10:57:54.405Z,4.40
2019-01-13T11:00:26.727Z,5.30
2019-01-13T11:03:01.773Z,5.00
2019-01-13T11:05:24.933Z,3.97
2019-01-13T11:07:53.551Z,4.60
2019-01-13T11:10:22.033Z,4.50
2019-01-13T11:12:50.282Z,4.07
2019-01-13T11:15:21.757Z,3.73
2019-01-13T11:17:48.557Z,4.27
2019-01-13T11:20:17.946Z,3.43
2019-01-13T11:22:46.691Z,3.97
2019-01-13T11:25:14.973Z,3.70
2019-01-13T11:27:43.281Z,3.40
2019-01-13T11:30:13.106Z,5.00
2019-01-13T11:32:41.435Z,4.00
2019-01-13T11:35:10.405Z,3.60
2019-01-13T11:37:38.722Z,3.37
2019-01-13T11:40:08.531Z,3.60
2019-01-13T11:42:36.744Z,3.80
2019-01-13T11:45:06.257Z,3.33
2019-01-13T11:47:34.477Z,4.10
2019-01-13T11:50:02.788Z,3.47
2019-01-13T11:52:31.030Z,4.23
2019-01-13T11:54:59.268Z,5.20
2019-01-13T11:57:27.485Z,3.60
2019-01-13T11:59:55.733Z,4.57
2019-01-13T12:02:23.949Z,4.20
2019-01-13T12:04:52.222Z,3.97
2019-01-13T12:07:20.434Z,3.87
2019-01-13T12:09:48.685Z,3.17
2019-01-13T12:12:16.969Z,3.73
2019-01-13T12:14:45.243Z,3.33
2019-01-13T12:17:13.453Z,3.00
2019-01-13T12:19:41.769Z,3.30
2019-01-13T12:22:09.982Z,3.00
2019-01-13T12:24:38.224Z,3.60
2019-01-13T12:27:06.449Z,3.50
2019-01-13T12:29:34.698Z,3.27
2019-01-13T12:32:02.918Z,3.53
2019-01-13T12:34:31.161Z,3.40
2019-01-13T12:36:59.373Z,3.60
2019-01-13T12:39:27.617Z,3.50
2019-01-13T12:41:55.833Z,3.53
2019-01-13T12:44:24.155Z,3.10
2019-01-13T12:46:52.449Z,3.00
2019-01-13T12:49:20.714Z,2.90
2019-01-13T12:51:48.926Z,3.70
2019-01-13T12:54:17.188Z,3.40
2019-01-13T12:56:45.410Z,3.23
2019-01-13T12:59:13.653Z,3.40
2019-01-13T13:01:41.930Z,3.00
2019-01-13T13:04:10.145Z,3.50
2019-01-13T13:06:38.392Z,3.30
2019-01-13T13:09:08.452Z,2.97
2019-01-13T13:11:36.775Z,3.60
2019-01-13T13:14:04.990Z,3.27
2019-01-13T13:16:33.237Z,3.30
2019-01-13T13:19:01.458Z,3.33
2019-01-13T13:21:29.702Z,3.10
2019-01-13T13:23:57.922Z,3.60
2019-01-13T13:26:26.170Z,3.60
2019-01-13T13:28:54.385Z,4.13
2019-01-13T13:31:22.637Z,5.07
2019-01-13T13:33:50.857Z,3.60
2019-01-13T13:36:19.111Z,3.40
2019-01-13T13:41:34.714Z,4.37
2019-01-13T13:44:02.992Z,3.80
2019-01-13T13:46:31.274Z,3.67
2019-01-13T13:48:59.523Z,3.60
2019-01-13T13:51:27.771Z,3.17
2019-01-13T13:53:55.985Z,3.00
2019-01-13T13:56:24.238Z,3.23
2019-01-13T13:58:52.487Z,3.93
2019-01-13T14:01:20.750Z,3.83
2019-01-13T14:03:48.994Z,3.67
2019-01-13T14:06:17.237Z,3.63
2019-01-13T14:08:45.491Z,3.37
2019-01-13T14:11:13.803Z,3.80
2019-01-13T14:13:42.056Z,3.60
2019-01-13T14:16:10.326Z,4.10
2019-01-13T14:18:38.545Z,3.40
2019-01-13T14:21:06.797Z,3.50
2019-01-13T14:23:35.009Z,3.17
2019-01-13T14:26:03.271Z,4.03
2019-01-13T14:28:31.485Z,3.60
2019-01-13T14:30:59.730Z,3.37
2019-01-13T14:33:28.019Z,5.20
2019-01-13T14:35:56.259Z,3.50
2019-01-13T14:38:24.530Z,3.70
2019-01-13T14:40:52.740Z,3.50
2019-01-13T14:43:20.989Z,3.60
2019-01-13T14:45:49.210Z,3.30
2019-01-13T14:48:17.534Z,3.60
2019-01-13T14:50:45.755Z,3.70
2019-01-13T14:53:14.006Z,3.17
2019-01-13T14:55:42.230Z,4.70
2019-01-13T14:58:10.749Z,4.03
2019-01-13T15:00:39.041Z,3.40
2019-01-13T15:03:07.286Z,2.90
2019-01-13T15:05:35.573Z,3.47
2019-01-13T15:08:04.189Z,3.50
2019-01-13T15:10:32.441Z,3.33
2019-01-13T15:13:00.696Z,3.80
2019-01-13T15:15:29.009Z,4.93
2019-01-13T15:17:57.354Z,3.80
2019-01-13T15:20:25.637Z,3.60
2019-01-13T15:22:53.965Z,2.93
2019-01-13T15:25:23.661Z,3.20
2019-01-13T15:27:51.905Z,3.70
2019-01-13T15:30:24.062Z,3.07
2019-01-13T15:32:53.090Z,3.63
2019-01-13T15:35:21.408Z,3.50
2019-01-13T15:37:49.658Z,3.40
2019-01-13T15:40:19.264Z,3.47
2019-01-13T15:42:47.861Z,3.80
2019-01-13T15:45:16.238Z,3.43
2019-01-13T15:47:44.549Z,3.63
2019-01-13T15:50:14.269Z,3.97
2019-01-13T15:52:43.122Z,3.30
2019-01-13T15:55:11.405Z,3.47
2019-01-13T15:57:39.739Z,3.10
2019-01-13T16:00:15.586Z,3.43
2019-01-13T16:02:44.071Z,3.43
2019-01-13T16:05:12.341Z,3.30
2019-01-13T16:07:40.548Z,3.80
2019-01-13T16:10:10.613Z,3.93
2019-01-13T16:12:38.926Z,3.63
2019-01-13T16:15:08.538Z,3.93
2019-01-13T16:17:36.782Z,3.57
2019-01-13T16:20:06.565Z,3.40
2019-01-13T16:22:34.877Z,4.10
2019-01-13T16:25:03.265Z,3.70
2019-01-13T16:27:31.514Z,6.87
2019-01-13T16:29:59.751Z,4.40
2019-01-13T16:32:27.966Z,4.33
2019-01-13T16:34:56.242Z,4.00
2019-01-13T16:37:24.448Z,4.37
2019-01-13T16:39:52.799Z,6.50
2019-01-13T16:42:21.009Z,4.00
2019-01-13T16:44:49.321Z,4.97
2019-01-13T16:47:17.537Z,5.23
2019-01-13T16:49:45.787Z,4.53
2019-01-13T16:52:14.005Z,4.63
2019-01-13T16:54:42.274Z,3.57
2019-01-13T16:57:10.481Z,4.40
2019-01-13T16:59:38.766Z,4.40
2019-01-13T17:02:06.969Z,3.73
2019-01-13T17:04:35.289Z,4.57
2019-01-13T17:07:03.741Z,4.63
2019-01-13T17:09:31.988Z,4.13
2019-01-13T17:12:00.205Z,5.67
2019-01-13T17:14:28.499Z,3.83
2019-01-13T17:16:56.721Z,4.43
2019-01-13T17:19:24.970Z,4.50
2019-01-13T17:21:53.208Z,5.03
2019-01-13T17:24:21.421Z,5.97
2019-01-13T17:26:49.698Z,4.60
2019-01-13T17:29:17.905Z,5.23
2019-01-13T17:31:46.183Z,3.90
2019-01-13T17:34:14.397Z,5.57
2019-01-13T17:36:42.646Z,4.20
2019-01-13T17:39:10.892Z,4.70
2019-01-13T17:41:39.138Z,4.97
2019-01-13T17:44:07.353Z,5.17
2019-01-13T17:46:35.602Z,5.53
2019-01-13T17:49:03.884Z,9.87
2019-01-13T17:51:32.135Z,6.40
2019-01-13T17:54:00.348Z,6.17
2019-01-13T17:56:28.592Z,5.00
2019-01-13T17:58:56.842Z,5.50
2019-01-13T18:01:25.657Z,3.80
2019-01-13T18:03:53.906Z,4.23
2019-01-13T18:06:22.121Z,6.23
2019-01-13T18:08:50.378Z,4.70
2019-01-13T18:11:18.621Z,4.50
2019-01-13T18:13:46.853Z,4.73
2019-01-13T18:16:15.114Z,5.10
2019-01-13T18:18:43.326Z,3.47
2019-01-13T18:21:11.570Z,5.03
2019-01-13T18:23:39.786Z,4.97
2019-01-13T18:26:08.006Z,5.50
2019-01-13T18:28:36.323Z,9.50
2019-01-13T18:31:04.621Z,4.53
2019-01-13T18:33:33.995Z,4.53
2019-01-13T18:36:02.592Z,4.67
2019-01-13T18:38:30.801Z,4.70
2019-01-13T18:40:59.026Z,4.40
2019-01-13T18:43:27.342Z,4.90
2019-01-13T18:45:55.631Z,4.30
2019-01-13T18:48:24.079Z,5.07
2019-01-13T18:50:52.313Z,4.17
2019-01-13T18:53:20.621Z,4.33
2019-01-13T18:55:48.837Z,4.13
2019-01-13T18:58:17.577Z,3.43
2019-01-13T19:00:45.873Z,3.93
2019-01-13T19:03:14.189Z,4.00
2019-01-13T19:05:42.507Z,3.83
2019-01-13T19:08:10.757Z,4.37
2019-01-13T19:10:40.529Z,4.67
2019-01-13T19:13:10.498Z,5.23
2019-01-13T19:15:38.753Z,4.73
2019-01-13T19:18:07.069Z,4.97
2019-01-13T19:20:35.325Z,5.43
2019-01-13T19:23:03.906Z,4.87
2019-01-13T19:25:32.257Z,3.93
2019-01-13T19:28:00.470Z,3.83
2019-01-13T19:30:28.781Z,4.10
2019-01-13T19:32:57.058Z,4.00
2019-01-13T19:35:25.342Z,3.97
2019-01-13T19:37:53.657Z,4.40
2019-01-13T19:40:21.881Z,4.27
2019-01-13T19:42:50.130Z,4.00
2019-01-13T19:45:19.417Z,3.50
2019-01-13T19:47:47.739Z,4.10
2019-01-13T19:50:20.162Z,5.03
2019-01-13T19:52:48.477Z,3.70
2019-01-13T19:55:17.068Z,4.70
2019-01-13T19:57:45.352Z,3.90
2019-01-13T20:00:15.163Z,4.77
2019-01-13T20:02:43.378Z,4.20
2019-01-13T20:05:11.994Z,4.90
2019-01-13T20:07:40.409Z,4.50
2019-01-13T20:10:10.146Z,3.60
2019-01-13T20:12:38.426Z,5.10
2019-01-13T20:15:11.442Z,4.37
2019-01-13T20:17:39.653Z,4.07
2019-01-13T20:20:09.441Z,4.87
2019-01-13T20:22:37.656Z,4.90
2019-01-13T20:25:07.577Z,3.93
2019-01-13T20:27:35.793Z,4.10
2019-01-13T20:30:05.583Z,4.10
2019-01-13T20:32:33.830Z,5.33
2019-01-13T20:35:02.071Z,4.37
2019-01-13T20:37:30.289Z,5.90
2019-01-13T20:39:58.537Z,4.63
2019-01-13T20:42:26.762Z,4.67
2019-01-13T20:44:55.014Z,6.13
2019-01-13T20:47:23.233Z,4.70
2019-01-13T20:49:51.476Z,4.67
2019-01-13T20:52:19.704Z,4.43
2019-01-13T20:54:47.985Z,5.63
2019-01-13T20:57:16.191Z,5.80
2019-01-13T20:59:44.441Z,3.37
2019-01-13T21:02:12.666Z,4.83
2019-01-13T21:04:40.946Z,4.57
2019-01-13T21:07:09.251Z,4.37
2019-01-13T21:09:37.491Z,4.00
2019-01-13T21:12:05.779Z,4.70
2019-01-13T21:14:34.025Z,3.60
2019-01-13T21:17:02.305Z,4.70
2019-01-13T21:19:30.512Z,3.30
2019-01-13T21:21:58.783Z,3.67
2019-01-13T21:24:27.065Z,3.67
2019-01-13T21:26:55.310Z,3.57
2019-01-13T21:29:23.526Z,3.73
2019-01-13T21:31:51.774Z,3.90
2019-01-13T21:34:19.994Z,2.93
2019-01-13T21:36:48.243Z,3.80
2019-01-13T21:39:16.457Z,4.03
2019-01-13T21:41:44.701Z,4.03
2019-01-13T21:44:13.061Z,3.50
2019-01-13T21:46:41.305Z,3.40
2019-01-13T21:49:09.517Z,3.90
2019-01-13T21:51:37.796Z,3.60
2019-01-13T21:54:10.829Z,3.20
2019-01-13T21:56:35.993Z,2.80
2019-01-13T21:59:04.278Z,3.93
2019-01-13T22:01:35.594Z,3.10
2019-01-13T22:04:02.389Z,3.20
2019-01-13T22:06:30.633Z,2.90
2019-01-13T22:08:58.849Z,3.20
2019-01-13T22:11:27.165Z,3.20
2019-01-13T22:13:55.381Z,3.10
2019-01-13T22:16:23.628Z,15.20
2019-01-13T22:18:51.882Z,3.67
2019-01-13T22:21:20.121Z,3.13
2019-01-13T22:23:48.337Z,3.30
2019-01-13T22:26:16.586Z,3.40
2019-01-13T22:28:44.801Z,3.57
2019-01-13T22:31:13.049Z,3.57
2019-01-13T22:33:41.302Z,3.50
2019-01-13T22:36:09.516Z,5.10
2019-01-13T22:38:37.766Z,3.60
2019-01-13T22:41:05.985Z,3.67
2019-01-13T22:43:34.237Z,3.47
2019-01-13T22:46:02.449Z,2.70
2019-01-13T22:48:30.693Z,3.93
2019-01-13T22:50:58.909Z,3.37
2019-01-13T22:53:27.188Z,3.40
2019-01-13T22:55:55.402Z,4.00
2019-01-13T22:58:23.648Z,4.13
2019-01-13T23:00:57.726Z,3.47
2019-01-13T23:03:26.001Z,2.90
2019-01-13T23:05:55.689Z,3.97
2019-01-13T23:08:24.229Z,3.07
2019-01-13T23:10:52.448Z,2.83
2019-01-13T23:13:20.688Z,2.97
2019-01-13T23:15:48.934Z,3.00
2019-01-13T23:18:17.175Z,3.37
2019-01-13T23:20:45.389Z,2.93
2019-01-13T23:23:13.670Z,3.43
2019-01-13T23:25:41.950Z,2.97
2019-01-13T23:28:10.196Z,4.70
2019-01-13T23:30:38.447Z,6.20
2019-01-13T23:33:06.714Z,4.47
2019-01-13T23:35:34.926Z,3.77
2019-01-13T23:38:03.173Z,2.77
2019-01-13T23:40:31.419Z,3.40
2019-01-13T23:42:59.625Z,3.80
2019-01-13T23:45:27.873Z,4.20
2019-01-13T23:47:56.118Z,3.10
2019-01-13T23:50:24.361Z,3.87
2019-01-13T23:52:52.577Z,3.27
2019-01-13T23:55:20.922Z,3.23
2019-01-13T23:57:50.024Z,4.33
